Deering Airport Deering US
ICAO: PADE
IATA:
Category: Medium
Scheduled Services:

Elevation: 21 ft
TransAlt. 18000 ft.

Airport Communications:
ANCHORAGE CNTR:119.2
ASOS:135.5
CTAF:122.9

PADE Zoom In..

Runways:

(A) RW 02 length 3320 ft width 75 ft
---- / hdg 21

(B) RW 11 length 2660 ft width 75 ft
---- / hdg 110

(C) RW 20 length 3320 ft width 75 ft
---- / hdg 201

(D) RW 29 length 2660 ft width 75 ft
---- / hdg 290

Location; PADE
Day. 10 / Time. 10.53 Zulu
* Altimeter: 30.20
* Temperature: -11° c. -12.2°f.
* Wind from: 000° Speed 00 kn.
Dewpoint: -12° c.
Visibility: 10 Statute Miles.
Clouds: Overcast 1300 ft.

PADE 101053Z AUTO 00000KT 10SM OVC013 M11/M12 A3020 RMK AO2 SLP227 T11061117 TSNO


Wind - Calm.

 
 
jpsmedia worldairports.se 2020   terms of use